sensor_id;sensor_type;location;lat;lon;timestamp;P1;durP1;ratioP1;P2;durP2;ratioP2
40871;SDS011;26591;43.264;26.940;2023-07-29T00:00:58;4.50;;;2.20;;
40871;SDS011;26591;43.264;26.940;2023-07-29T00:03:25;4.15;;;1.90;;
40871;SDS011;26591;43.264;26.940;2023-07-29T00:05:50;10.50;;;2.17;;
40871;SDS011;26591;43.264;26.940;2023-07-29T00:08:16;5.32;;;2.35;;
40871;SDS011;26591;43.264;26.940;2023-07-29T00:10:41;3.88;;;1.92;;
40871;SDS011;26591;43.264;26.940;2023-07-29T00:13:07;5.93;;;2.83;;
40871;SDS011;26591;43.264;26.940;2023-07-29T00:15:33;3.70;;;2.05;;
40871;SDS011;26591;43.264;26.940;2023-07-29T00:17:58;6.60;;;1.98;;
40871;SDS011;26591;43.264;26.940;2023-07-29T00:20:25;6.82;;;2.25;;
40871;SDS011;26591;43.264;26.940;2023-07-29T00:22:51;3.72;;;2.33;;
40871;SDS011;26591;43.264;26.940;2023-07-29T00:25:19;4.50;;;2.25;;
40871;SDS011;26591;43.264;26.940;2023-07-29T00:27:45;3.08;;;2.00;;
40871;SDS011;26591;43.264;26.940;2023-07-29T00:30:10;9.55;;;2.53;;
40871;SDS011;26591;43.264;26.940;2023-07-29T00:32:36;5.32;;;2.28;;
40871;SDS011;26591;43.264;26.940;2023-07-29T00:35:02;4.30;;;2.05;;
40871;SDS011;26591;43.264;26.940;2023-07-29T00:37:28;4.82;;;2.33;;
40871;SDS011;26591;43.264;26.940;2023-07-29T00:39:53;5.22;;;2.15;;
40871;SDS011;26591;43.264;26.940;2023-07-29T00:42:19;3.55;;;2.05;;
40871;SDS011;26591;43.264;26.940;2023-07-29T00:44:45;2.28;;;1.77;;
40871;SDS011;26591;43.264;26.940;2023-07-29T00:47:10;4.35;;;1.50;;
40871;SDS011;26591;43.264;26.940;2023-07-29T00:49:37;3.15;;;1.75;;
40871;SDS011;26591;43.264;26.940;2023-07-29T00:52:03;4.15;;;1.95;;
40871;SDS011;26591;43.264;26.940;2023-07-29T00:54:29;2.92;;;1.80;;
40871;SDS011;26591;43.264;26.940;2023-07-29T00:56:55;8.20;;;2.08;;
40871;SDS011;26591;43.264;26.940;2023-07-29T00:59:20;3.38;;;1.88;;
40871;SDS011;26591;43.264;26.940;2023-07-29T01:01:46;3.25;;;1.55;;
40871;SDS011;26591;43.264;26.940;2023-07-29T01:04:12;4.28;;;1.63;;
40871;SDS011;26591;43.264;26.940;2023-07-29T01:09:39;3.80;;;1.60;;
40871;SDS011;26591;43.264;26.940;2023-07-29T01:12:29;3.25;;;1.60;;
40871;SDS011;26591;43.264;26.940;2023-07-29T01:15:20;8.00;;;2.00;;
40871;SDS011;26591;43.264;26.940;2023-07-29T01:18:02;13.75;;;2.30;;
40871;SDS011;26591;43.264;26.940;2023-07-29T01:20:57;5.32;;;2.15;;
40871;SDS011;26591;43.264;26.940;2023-07-29T01:23:34;2.83;;;1.92;;
40871;SDS011;26591;43.264;26.940;2023-07-29T01:26:01;2.42;;;1.90;;
40871;SDS011;26591;43.264;26.940;2023-07-29T01:28:27;3.22;;;2.00;;
40871;SDS011;26591;43.264;26.940;2023-07-29T01:33:57;4.10;;;1.45;;
40871;SDS011;26591;43.264;26.940;2023-07-29T01:36:27;7.40;;;2.00;;
40871;SDS011;26591;43.264;26.940;2023-07-29T01:38:55;3.53;;;1.67;;
40871;SDS011;26591;43.264;26.940;2023-07-29T01:41:22;7.80;;;2.03;;
40871;SDS011;26591;43.264;26.940;2023-07-29T01:43:49;3.75;;;1.92;;
40871;SDS011;26591;43.264;26.940;2023-07-29T01:46:17;8.02;;;2.00;;
40871;SDS011;26591;43.264;26.940;2023-07-29T01:48:42;2.55;;;1.52;;
40871;SDS011;26591;43.264;26.940;2023-07-29T01:51:08;3.53;;;1.48;;
40871;SDS011;26591;43.264;26.940;2023-07-29T01:53:36;5.20;;;1.60;;
40871;SDS011;26591;43.264;26.940;2023-07-29T01:56:02;2.60;;;1.80;;
40871;SDS011;26591;43.264;26.940;2023-07-29T01:58:27;3.78;;;1.77;;
40871;SDS011;26591;43.264;26.940;2023-07-29T02:00:53;3.45;;;1.88;;
40871;SDS011;26591;43.264;26.940;2023-07-29T02:03:18;5.03;;;1.73;;
40871;SDS011;26591;43.264;26.940;2023-07-29T02:05:44;5.38;;;1.75;;
40871;SDS011;26591;43.264;26.940;2023-07-29T02:08:10;3.33;;;1.63;;
40871;SDS011;26591;43.264;26.940;2023-07-29T02:10:36;5.53;;;1.83;;
40871;SDS011;26591;43.264;26.940;2023-07-29T02:13:02;3.95;;;1.80;;
40871;SDS011;26591;43.264;26.940;2023-07-29T02:15:28;5.68;;;1.70;;
40871;SDS011;26591;43.264;26.940;2023-07-29T02:17:54;4.47;;;1.88;;
40871;SDS011;26591;43.264;26.940;2023-07-29T02:20:19;5.18;;;1.92;;
40871;SDS011;26591;43.264;26.940;2023-07-29T02:22:45;6.88;;;2.20;;
40871;SDS011;26591;43.264;26.940;2023-07-29T02:25:11;4.75;;;1.98;;
40871;SDS011;26591;43.264;26.940;2023-07-29T02:27:36;4.90;;;2.30;;
40871;SDS011;26591;43.264;26.940;2023-07-29T02:30:02;8.18;;;2.08;;
40871;SDS011;26591;43.264;26.940;2023-07-29T02:32:28;6.40;;;2.28;;
40871;SDS011;26591;43.264;26.940;2023-07-29T02:34:54;2.92;;;1.95;;
40871;SDS011;26591;43.264;26.940;2023-07-29T02:37:19;4.25;;;2.42;;
40871;SDS011;26591;43.264;26.940;2023-07-29T02:39:45;4.32;;;1.88;;
40871;SDS011;26591;43.264;26.940;2023-07-29T02:42:11;3.13;;;1.85;;
40871;SDS011;26591;43.264;26.940;2023-07-29T02:44:38;5.88;;;2.80;;
40871;SDS011;26591;43.264;26.940;2023-07-29T02:47:05;5.18;;;1.95;;
40871;SDS011;26591;43.264;26.940;2023-07-29T02:49:30;3.40;;;2.17;;
40871;SDS011;26591;43.264;26.940;2023-07-29T02:51:56;5.70;;;2.47;;
40871;SDS011;26591;43.264;26.940;2023-07-29T02:54:21;10.38;;;2.45;;
40871;SDS011;26591;43.264;26.940;2023-07-29T02:56:47;7.82;;;2.35;;
40871;SDS011;26591;43.264;26.940;2023-07-29T02:59:15;8.80;;;2.20;;
40871;SDS011;26591;43.264;26.940;2023-07-29T03:01:41;7.03;;;2.35;;
40871;SDS011;26591;43.264;26.940;2023-07-29T03:04:06;3.72;;;2.10;;
40871;SDS011;26591;43.264;26.940;2023-07-29T03:06:32;6.85;;;2.40;;
40871;SDS011;26591;43.264;26.940;2023-07-29T03:08:57;5.65;;;2.38;;
40871;SDS011;26591;43.264;26.940;2023-07-29T03:11:23;8.55;;;2.63;;
40871;SDS011;26591;43.264;26.940;2023-07-29T03:13:48;10.43;;;2.80;;
40871;SDS011;26591;43.264;26.940;2023-07-29T03:16:14;6.35;;;2.63;;
40871;SDS011;26591;43.264;26.940;2023-07-29T03:18:41;10.63;;;2.83;;
40871;SDS011;26591;43.264;26.940;2023-07-29T03:21:08;8.38;;;2.58;;
40871;SDS011;26591;43.264;26.940;2023-07-29T03:23:34;7.00;;;3.10;;
40871;SDS011;26591;43.264;26.940;2023-07-29T03:26:01;8.55;;;2.17;;
40871;SDS011;26591;43.264;26.940;2023-07-29T03:28:31;10.38;;;2.70;;
40871;SDS011;26591;43.264;26.940;2023-07-29T03:30:58;14.73;;;2.95;;
40871;SDS011;26591;43.264;26.940;2023-07-29T03:33:24;7.35;;;2.72;;
40871;SDS011;26591;43.264;26.940;2023-07-29T03:35:51;13.73;;;2.42;;
40871;SDS011;26591;43.264;26.940;2023-07-29T03:38:17;9.73;;;2.50;;
40871;SDS011;26591;43.264;26.940;2023-07-29T03:40:43;4.97;;;2.22;;
40871;SDS011;26591;43.264;26.940;2023-07-29T03:43:09;6.70;;;2.58;;
40871;SDS011;26591;43.264;26.940;2023-07-29T03:45:35;12.02;;;2.70;;
40871;SDS011;26591;43.264;26.940;2023-07-29T03:48:01;16.20;;;2.60;;
40871;SDS011;26591;43.264;26.940;2023-07-29T03:50:27;7.22;;;2.58;;
40871;SDS011;26591;43.264;26.940;2023-07-29T03:52:54;9.40;;;2.58;;
40871;SDS011;26591;43.264;26.940;2023-07-29T03:55:19;11.40;;;2.72;;
40871;SDS011;26591;43.264;26.940;2023-07-29T03:57:45;9.57;;;2.83;;
40871;SDS011;26591;43.264;26.940;2023-07-29T04:00:11;12.07;;;3.33;;
40871;SDS011;26591;43.264;26.940;2023-07-29T04:02:37;10.60;;;3.38;;
40871;SDS011;26591;43.264;26.940;2023-07-29T04:05:03;8.07;;;3.38;;
40871;SDS011;26591;43.264;26.940;2023-07-29T04:07:30;9.35;;;3.35;;
40871;SDS011;26591;43.264;26.940;2023-07-29T04:09:56;5.68;;;3.15;;
40871;SDS011;26591;43.264;26.940;2023-07-29T04:12:22;7.35;;;2.70;;
40871;SDS011;26591;43.264;26.940;2023-07-29T04:14:48;5.47;;;2.38;;
40871;SDS011;26591;43.264;26.940;2023-07-29T04:17:13;10.50;;;3.75;;
40871;SDS011;26591;43.264;26.940;2023-07-29T04:19:39;11.35;;;3.30;;
40871;SDS011;26591;43.264;26.940;2023-07-29T04:22:05;7.47;;;3.03;;
40871;SDS011;26591;43.264;26.940;2023-07-29T04:24:32;6.42;;;3.34;;
40871;SDS011;26591;43.264;26.940;2023-07-29T04:26:57;10.68;;;3.17;;
40871;SDS011;26591;43.264;26.940;2023-07-29T04:29:23;10.50;;;3.67;;
40871;SDS011;26591;43.264;26.940;2023-07-29T04:31:51;10.60;;;3.15;;
40871;SDS011;26591;43.264;26.940;2023-07-29T04:34:17;13.02;;;3.63;;
40871;SDS011;26591;43.264;26.940;2023-07-29T04:36:44;5.65;;;3.20;;
40871;SDS011;26591;43.264;26.940;2023-07-29T04:39:12;7.03;;;3.10;;
40871;SDS011;26591;43.264;26.940;2023-07-29T04:41:38;12.55;;;3.75;;
40871;SDS011;26591;43.264;26.940;2023-07-29T04:44:03;8.85;;;2.97;;
40871;SDS011;26591;43.264;26.940;2023-07-29T04:46:29;7.18;;;3.00;;
40871;SDS011;26591;43.264;26.940;2023-07-29T04:48:55;9.77;;;3.33;;
40871;SDS011;26591;43.264;26.940;2023-07-29T04:51:21;7.70;;;2.42;;
40871;SDS011;26591;43.264;26.940;2023-07-29T04:53:46;8.98;;;2.78;;
40871;SDS011;26591;43.264;26.940;2023-07-29T04:56:12;12.57;;;2.85;;
40871;SDS011;26591;43.264;26.940;2023-07-29T04:58:37;7.78;;;2.70;;
40871;SDS011;26591;43.264;26.940;2023-07-29T05:01:03;4.57;;;2.63;;
40871;SDS011;26591;43.264;26.940;2023-07-29T05:03:29;7.03;;;2.30;;
40871;SDS011;26591;43.264;26.940;2023-07-29T05:05:55;7.22;;;2.83;;
40871;SDS011;26591;43.264;26.940;2023-07-29T05:08:22;6.22;;;3.00;;
40871;SDS011;26591;43.264;26.940;2023-07-29T05:10:51;12.88;;;3.20;;
40871;SDS011;26591;43.264;26.940;2023-07-29T05:13:17;10.95;;;3.00;;
40871;SDS011;26591;43.264;26.940;2023-07-29T05:15:43;8.88;;;2.58;;
40871;SDS011;26591;43.264;26.940;2023-07-29T05:18:09;4.78;;;2.50;;
40871;SDS011;26591;43.264;26.940;2023-07-29T05:20:34;6.20;;;2.53;;
40871;SDS011;26591;43.264;26.940;2023-07-29T05:23:00;9.50;;;2.90;;
40871;SDS011;26591;43.264;26.940;2023-07-29T05:25:26;3.97;;;2.55;;
40871;SDS011;26591;43.264;26.940;2023-07-29T05:27:52;11.40;;;2.33;;
40871;SDS011;26591;43.264;26.940;2023-07-29T05:30:17;10.30;;;2.80;;
40871;SDS011;26591;43.264;26.940;2023-07-29T05:32:43;5.35;;;2.10;;
40871;SDS011;26591;43.264;26.940;2023-07-29T05:35:08;4.63;;;2.38;;
40871;SDS011;26591;43.264;26.940;2023-07-29T05:37:37;4.13;;;2.67;;
40871;SDS011;26591;43.264;26.940;2023-07-29T05:40:04;3.60;;;2.35;;
40871;SDS011;26591;43.264;26.940;2023-07-29T05:42:30;3.47;;;2.20;;
40871;SDS011;26591;43.264;26.940;2023-07-29T05:44:55;6.07;;;2.47;;
40871;SDS011;26591;43.264;26.940;2023-07-29T05:47:21;4.57;;;2.47;;
40871;SDS011;26591;43.264;26.940;2023-07-29T05:49:46;9.07;;;2.90;;
40871;SDS011;26591;43.264;26.940;2023-07-29T05:52:12;4.50;;;2.47;;
40871;SDS011;26591;43.264;26.940;2023-07-29T05:54:37;10.45;;;3.40;;
40871;SDS011;26591;43.264;26.940;2023-07-29T05:57:03;6.85;;;2.70;;
40871;SDS011;26591;43.264;26.940;2023-07-29T05:59:28;5.13;;;3.10;;
40871;SDS011;26591;43.264;26.940;2023-07-29T06:01:54;6.28;;;3.40;;
40871;SDS011;26591;43.264;26.940;2023-07-29T06:04:20;5.18;;;3.10;;
40871;SDS011;26591;43.264;26.940;2023-07-29T06:06:45;7.13;;;3.03;;
40871;SDS011;26591;43.264;26.940;2023-07-29T06:09:11;5.13;;;3.13;;
40871;SDS011;26591;43.264;26.940;2023-07-29T06:11:37;4.50;;;2.70;;
40871;SDS011;26591;43.264;26.940;2023-07-29T06:14:02;7.28;;;3.22;;
40871;SDS011;26591;43.264;26.940;2023-07-29T06:16:28;6.72;;;3.08;;
40871;SDS011;26591;43.264;26.940;2023-07-29T06:18:53;7.85;;;3.50;;
40871;SDS011;26591;43.264;26.940;2023-07-29T06:21:19;7.93;;;3.10;;
40871;SDS011;26591;43.264;26.940;2023-07-29T06:23:45;5.22;;;3.28;;
40871;SDS011;26591;43.264;26.940;2023-07-29T06:26:11;7.10;;;3.15;;
40871;SDS011;26591;43.264;26.940;2023-07-29T06:28:37;6.57;;;3.10;;
40871;SDS011;26591;43.264;26.940;2023-07-29T06:31:02;5.85;;;2.67;;
40871;SDS011;26591;43.264;26.940;2023-07-29T06:33:28;5.50;;;2.88;;
40871;SDS011;26591;43.264;26.940;2023-07-29T06:35:53;9.02;;;2.72;;
40871;SDS011;26591;43.264;26.940;2023-07-29T06:38:18;4.65;;;2.55;;
40871;SDS011;26591;43.264;26.940;2023-07-29T06:40:47;7.25;;;2.58;;
40871;SDS011;26591;43.264;26.940;2023-07-29T06:43:13;9.10;;;2.63;;
40871;SDS011;26591;43.264;26.940;2023-07-29T06:45:38;5.10;;;2.72;;
40871;SDS011;26591;43.264;26.940;2023-07-29T06:48:04;8.85;;;2.90;;
40871;SDS011;26591;43.264;26.940;2023-07-29T06:50:30;6.00;;;2.65;;
40871;SDS011;26591;43.264;26.940;2023-07-29T06:52:55;8.05;;;2.30;;
40871;SDS011;26591;43.264;26.940;2023-07-29T06:55:21;4.18;;;2.47;;
40871;SDS011;26591;43.264;26.940;2023-07-29T06:57:46;6.03;;;2.65;;
40871;SDS011;26591;43.264;26.940;2023-07-29T07:00:12;10.75;;;2.63;;
40871;SDS011;26591;43.264;26.940;2023-07-29T07:02:38;3.67;;;2.10;;
40871;SDS011;26591;43.264;26.940;2023-07-29T07:05:03;3.95;;;2.38;;
40871;SDS011;26591;43.264;26.940;2023-07-29T07:07:29;3.92;;;2.40;;
40871;SDS011;26591;43.264;26.940;2023-07-29T07:09:56;7.88;;;2.45;;
40871;SDS011;26591;43.264;26.940;2023-07-29T07:12:21;3.90;;;2.00;;
40871;SDS011;26591;43.264;26.940;2023-07-29T07:14:47;8.27;;;2.42;;
40871;SDS011;26591;43.264;26.940;2023-07-29T07:17:13;7.18;;;1.95;;
40871;SDS011;26591;43.264;26.940;2023-07-29T07:19:38;3.70;;;2.22;;
40871;SDS011;26591;43.264;26.940;2023-07-29T07:22:04;10.18;;;3.05;;
40871;SDS011;26591;43.264;26.940;2023-07-29T07:24:29;3.35;;;1.98;;
40871;SDS011;26591;43.264;26.940;2023-07-29T07:26:55;5.05;;;2.75;;
40871;SDS011;26591;43.264;26.940;2023-07-29T07:29:21;6.40;;;2.42;;
40871;SDS011;26591;43.264;26.940;2023-07-29T07:31:50;4.25;;;1.85;;
40871;SDS011;26591;43.264;26.940;2023-07-29T07:34:18;6.63;;;2.10;;
40871;SDS011;26591;43.264;26.940;2023-07-29T07:36:44;8.25;;;2.45;;
40871;SDS011;26591;43.264;26.940;2023-07-29T07:39:09;4.93;;;2.10;;
40871;SDS011;26591;43.264;26.940;2023-07-29T07:41:35;5.10;;;2.20;;
40871;SDS011;26591;43.264;26.940;2023-07-29T07:44:00;3.90;;;2.28;;
40871;SDS011;26591;43.264;26.940;2023-07-29T07:46:26;4.32;;;2.28;;
40871;SDS011;26591;43.264;26.940;2023-07-29T07:48:51;3.53;;;2.15;;
40871;SDS011;26591;43.264;26.940;2023-07-29T07:51:17;5.00;;;2.13;;
40871;SDS011;26591;43.264;26.940;2023-07-29T07:53:42;3.85;;;1.92;;
40871;SDS011;26591;43.264;26.940;2023-07-29T07:56:08;7.32;;;2.45;;
40871;SDS011;26591;43.264;26.940;2023-07-29T07:58:34;5.43;;;2.13;;
40871;SDS011;26591;43.264;26.940;2023-07-29T08:01:03;8.85;;;2.20;;
40871;SDS011;26591;43.264;26.940;2023-07-29T08:03:30;7.28;;;2.30;;
40871;SDS011;26591;43.264;26.940;2023-07-29T08:05:56;8.23;;;2.33;;
40871;SDS011;26591;43.264;26.940;2023-07-29T08:08:21;5.50;;;1.90;;
40871;SDS011;26591;43.264;26.940;2023-07-29T08:10:47;5.90;;;2.15;;
40871;SDS011;26591;43.264;26.940;2023-07-29T08:13:12;6.72;;;2.20;;
40871;SDS011;26591;43.264;26.940;2023-07-29T08:15:38;8.50;;;2.65;;
40871;SDS011;26591;43.264;26.940;2023-07-29T08:18:03;5.13;;;2.22;;
40871;SDS011;26591;43.264;26.940;2023-07-29T08:20:29;3.47;;;2.22;;
40871;SDS011;26591;43.264;26.940;2023-07-29T08:22:55;4.43;;;2.20;;
40871;SDS011;26591;43.264;26.940;2023-07-29T08:25:20;10.70;;;2.20;;
40871;SDS011;26591;43.264;26.940;2023-07-29T08:27:46;12.10;;;2.15;;
40871;SDS011;26591;43.264;26.940;2023-07-29T08:30:11;7.93;;;2.60;;
40871;SDS011;26591;43.264;26.940;2023-07-29T08:32:37;6.57;;;2.50;;
40871;SDS011;26591;43.264;26.940;2023-07-29T08:35:03;10.63;;;2.30;;
40871;SDS011;26591;43.264;26.940;2023-07-29T08:37:28;5.15;;;2.33;;
40871;SDS011;26591;43.264;26.940;2023-07-29T08:39:54;4.80;;;2.58;;
40871;SDS011;26591;43.264;26.940;2023-07-29T08:42:20;6.68;;;2.88;;
40871;SDS011;26591;43.264;26.940;2023-07-29T08:44:49;4.47;;;2.25;;
40871;SDS011;26591;43.264;26.940;2023-07-29T08:47:14;3.33;;;2.20;;
40871;SDS011;26591;43.264;26.940;2023-07-29T08:49:40;4.57;;;2.40;;
40871;SDS011;26591;43.264;26.940;2023-07-29T08:52:07;12.68;;;2.47;;
40871;SDS011;26591;43.264;26.940;2023-07-29T08:54:34;5.40;;;3.08;;
40871;SDS011;26591;43.264;26.940;2023-07-29T08:57:00;7.10;;;2.40;;
40871;SDS011;26591;43.264;26.940;2023-07-29T08:59:25;8.65;;;2.35;;
40871;SDS011;26591;43.264;26.940;2023-07-29T09:01:52;5.75;;;2.33;;
40871;SDS011;26591;43.264;26.940;2023-07-29T09:04:21;4.55;;;2.10;;
40871;SDS011;26591;43.264;26.940;2023-07-29T09:06:49;3.38;;;2.15;;
40871;SDS011;26591;43.264;26.940;2023-07-29T09:09:15;4.07;;;2.03;;
40871;SDS011;26591;43.264;26.940;2023-07-29T09:11:41;3.92;;;2.25;;
40871;SDS011;26591;43.264;26.940;2023-07-29T09:14:06;4.00;;;2.15;;
40871;SDS011;26591;43.264;26.940;2023-07-29T09:16:32;4.68;;;2.17;;
40871;SDS011;26591;43.264;26.940;2023-07-29T09:19:00;5.10;;;2.15;;
40871;SDS011;26591;43.264;26.940;2023-07-29T09:23:54;4.72;;;1.75;;
40871;SDS011;26591;43.264;26.940;2023-07-29T09:26:23;14.00;;;2.78;;
40871;SDS011;26591;43.264;26.940;2023-07-29T09:28:54;3.10;;;1.88;;
40871;SDS011;26591;43.264;26.940;2023-07-29T09:31:21;4.53;;;2.00;;
40871;SDS011;26591;43.264;26.940;2023-07-29T09:33:47;5.03;;;1.73;;
40871;SDS011;26591;43.264;26.940;2023-07-29T09:36:13;3.63;;;2.15;;
40871;SDS011;26591;43.264;26.940;2023-07-29T09:38:38;5.25;;;1.90;;
40871;SDS011;26591;43.264;26.940;2023-07-29T09:41:04;2.25;;;1.65;;
40871;SDS011;26591;43.264;26.940;2023-07-29T09:43:30;13.40;;;2.35;;
40871;SDS011;26591;43.264;26.940;2023-07-29T09:46:01;2.30;;;2.00;;
40871;SDS011;26591;43.264;26.940;2023-07-29T09:48:28;3.60;;;1.83;;
40871;SDS011;26591;43.264;26.940;2023-07-29T09:50:54;5.43;;;2.00;;
40871;SDS011;26591;43.264;26.940;2023-07-29T09:53:20;3.50;;;1.90;;
40871;SDS011;26591;43.264;26.940;2023-07-29T09:55:47;6.10;;;2.30;;
40871;SDS011;26591;43.264;26.940;2023-07-29T09:58:13;8.52;;;2.08;;
40871;SDS011;26591;43.264;26.940;2023-07-29T10:00:39;7.15;;;1.90;;
40871;SDS011;26591;43.264;26.940;2023-07-29T10:03:06;4.20;;;1.83;;
40871;SDS011;26591;43.264;26.940;2023-07-29T10:05:31;5.13;;;2.13;;
40871;SDS011;26591;43.264;26.940;2023-07-29T10:07:59;4.57;;;2.00;;
40871;SDS011;26591;43.264;26.940;2023-07-29T10:10:27;20.40;;;3.42;;
40871;SDS011;26591;43.264;26.940;2023-07-29T10:12:53;1.95;;;1.63;;
40871;SDS011;26591;43.264;26.940;2023-07-29T10:15:19;4.03;;;1.80;;
40871;SDS011;26591;43.264;26.940;2023-07-29T10:17:46;3.90;;;1.90;;
40871;SDS011;26591;43.264;26.940;2023-07-29T10:20:12;4.47;;;1.75;;
40871;SDS011;26591;43.264;26.940;2023-07-29T10:22:41;3.20;;;1.70;;
40871;SDS011;26591;43.264;26.940;2023-07-29T10:25:18;3.58;;;2.17;;
40871;SDS011;26591;43.264;26.940;2023-07-29T10:27:48;4.00;;;2.00;;
40871;SDS011;26591;43.264;26.940;2023-07-29T10:30:17;3.42;;;1.88;;
40871;SDS011;26591;43.264;26.940;2023-07-29T10:32:43;4.28;;;2.03;;
40871;SDS011;26591;43.264;26.940;2023-07-29T10:35:13;4.97;;;1.80;;
40871;SDS011;26591;43.264;26.940;2023-07-29T10:37:41;3.13;;;1.80;;
40871;SDS011;26591;43.264;26.940;2023-07-29T10:40:09;2.15;;;1.70;;
40871;SDS011;26591;43.264;26.940;2023-07-29T10:42:37;2.55;;;1.80;;
40871;SDS011;26591;43.264;26.940;2023-07-29T10:45:24;2.10;;;1.77;;
40871;SDS011;26591;43.264;26.940;2023-07-29T10:47:49;7.65;;;1.95;;
40871;SDS011;26591;43.264;26.940;2023-07-29T10:50:18;3.42;;;2.22;;
40871;SDS011;26591;43.264;26.940;2023-07-29T10:52:52;4.35;;;1.90;;
40871;SDS011;26591;43.264;26.940;2023-07-29T10:55:25;5.72;;;1.73;;
40871;SDS011;26591;43.264;26.940;2023-07-29T10:58:14;2.75;;;1.42;;
40871;SDS011;26591;43.264;26.940;2023-07-29T11:00:45;3.72;;;1.95;;
40871;SDS011;26591;43.264;26.940;2023-07-29T11:03:12;4.47;;;1.83;;
40871;SDS011;26591;43.264;26.940;2023-07-29T11:05:51;2.13;;;1.80;;
40871;SDS011;26591;43.264;26.940;2023-07-29T11:08:21;2.33;;;1.70;;
40871;SDS011;26591;43.264;26.940;2023-07-29T11:13:43;2.00;;;1.50;;
40871;SDS011;26591;43.264;26.940;2023-07-29T11:16:09;4.80;;;1.65;;
40871;SDS011;26591;43.264;26.940;2023-07-29T11:18:35;2.72;;;1.50;;
40871;SDS011;26591;43.264;26.940;2023-07-29T11:21:02;4.70;;;1.75;;
40871;SDS011;26591;43.264;26.940;2023-07-29T11:23:35;3.35;;;1.80;;
40871;SDS011;26591;43.264;26.940;2023-07-29T11:26:02;1.48;;;1.27;;
40871;SDS011;26591;43.264;26.940;2023-07-29T11:28:29;3.97;;;1.65;;
40871;SDS011;26591;43.264;26.940;2023-07-29T11:30:55;3.92;;;1.60;;
40871;SDS011;26591;43.264;26.940;2023-07-29T11:33:22;5.90;;;1.80;;
40871;SDS011;26591;43.264;26.940;2023-07-29T11:35:49;3.00;;;1.80;;
40871;SDS011;26591;43.264;26.940;2023-07-29T11:38:15;3.40;;;1.55;;
40871;SDS011;26591;43.264;26.940;2023-07-29T11:40:41;6.68;;;1.50;;
40871;SDS011;26591;43.264;26.940;2023-07-29T11:43:07;7.25;;;1.60;;
40871;SDS011;26591;43.264;26.940;2023-07-29T11:45:33;1.88;;;1.65;;
40871;SDS011;26591;43.264;26.940;2023-07-29T11:48:00;2.85;;;1.40;;
40871;SDS011;26591;43.264;26.940;2023-07-29T11:50:26;2.30;;;1.52;;
40871;SDS011;26591;43.264;26.940;2023-07-29T11:52:52;3.95;;;2.00;;
40871;SDS011;26591;43.264;26.940;2023-07-29T11:55:18;3.20;;;1.75;;
40871;SDS011;26591;43.264;26.940;2023-07-29T11:57:44;2.25;;;1.73;;
40871;SDS011;26591;43.264;26.940;2023-07-29T12:00:16;2.70;;;1.70;;
40871;SDS011;26591;43.264;26.940;2023-07-29T12:02:43;1.70;;;1.52;;
40871;SDS011;26591;43.264;26.940;2023-07-29T12:05:10;2.17;;;1.60;;
40871;SDS011;26591;43.264;26.940;2023-07-29T12:07:41;2.05;;;1.40;;
40871;SDS011;26591;43.264;26.940;2023-07-29T12:10:08;2.75;;;1.50;;
40871;SDS011;26591;43.264;26.940;2023-07-29T12:12:44;3.50;;;1.40;;
40871;SDS011;26591;43.264;26.940;2023-07-29T12:15:11;2.85;;;1.50;;
40871;SDS011;26591;43.264;26.940;2023-07-29T12:17:40;3.08;;;1.55;;
40871;SDS011;26591;43.264;26.940;2023-07-29T12:20:08;3.45;;;1.90;;
40871;SDS011;26591;43.264;26.940;2023-07-29T12:22:34;1.58;;;1.42;;
40871;SDS011;26591;43.264;26.940;2023-07-29T12:25:00;1.83;;;1.50;;
40871;SDS011;26591;43.264;26.940;2023-07-29T12:27:26;2.45;;;1.30;;
40871;SDS011;26591;43.264;26.940;2023-07-29T12:29:52;2.55;;;1.40;;
40871;SDS011;26591;43.264;26.940;2023-07-29T12:32:18;2.60;;;1.40;;
40871;SDS011;26591;43.264;26.940;2023-07-29T12:34:44;2.05;;;1.52;;
40871;SDS011;26591;43.264;26.940;2023-07-29T12:37:09;2.72;;;1.30;;
40871;SDS011;26591;43.264;26.940;2023-07-29T12:39:35;3.35;;;1.35;;
40871;SDS011;26591;43.264;26.940;2023-07-29T12:42:07;5.05;;;1.48;;
40871;SDS011;26591;43.264;26.940;2023-07-29T12:44:33;1.35;;;1.20;;
40871;SDS011;26591;43.264;26.940;2023-07-29T12:47:03;2.22;;;1.40;;
40871;SDS011;26591;43.264;26.940;2023-07-29T12:49:30;3.83;;;1.40;;
40871;SDS011;26591;43.264;26.940;2023-07-29T12:51:57;2.63;;;1.20;;
40871;SDS011;26591;43.264;26.940;2023-07-29T12:54:23;7.53;;;1.80;;
40871;SDS011;26591;43.264;26.940;2023-07-29T12:56:48;6.15;;;1.60;;
40871;SDS011;26591;43.264;26.940;2023-07-29T12:59:13;1.60;;;1.40;;
40871;SDS011;26591;43.264;26.940;2023-07-29T13:01:39;1.85;;;1.33;;
40871;SDS011;26591;43.264;26.940;2023-07-29T13:04:05;2.30;;;1.55;;
40871;SDS011;26591;43.264;26.940;2023-07-29T13:06:31;3.13;;;1.20;;
40871;SDS011;26591;43.264;26.940;2023-07-29T13:08:57;1.67;;;1.45;;
40871;SDS011;26591;43.264;26.940;2023-07-29T13:11:23;4.57;;;1.45;;
40871;SDS011;26591;43.264;26.940;2023-07-29T13:13:49;3.22;;;1.38;;
40871;SDS011;26591;43.264;26.940;2023-07-29T13:16:15;1.73;;;1.40;;
40871;SDS011;26591;43.264;26.940;2023-07-29T13:18:40;1.42;;;1.30;;
40871;SDS011;26591;43.264;26.940;2023-07-29T13:21:06;2.13;;;1.60;;
40871;SDS011;26591;43.264;26.940;2023-07-29T13:23:31;3.00;;;1.42;;
40871;SDS011;26591;43.264;26.940;2023-07-29T13:25:57;2.60;;;1.20;;
40871;SDS011;26591;43.264;26.940;2023-07-29T13:28:23;1.63;;;1.20;;
40871;SDS011;26591;43.264;26.940;2023-07-29T13:30:48;3.00;;;1.10;;
40871;SDS011;26591;43.264;26.940;2023-07-29T13:33:14;1.83;;;1.45;;
40871;SDS011;26591;43.264;26.940;2023-07-29T13:35:40;3.45;;;1.30;;
40871;SDS011;26591;43.264;26.940;2023-07-29T13:38:06;3.72;;;1.48;;
40871;SDS011;26591;43.264;26.940;2023-07-29T13:40:31;2.17;;;1.27;;
40871;SDS011;26591;43.264;26.940;2023-07-29T13:42:57;2.70;;;1.58;;
40871;SDS011;26591;43.264;26.940;2023-07-29T13:45:22;2.50;;;1.40;;
40871;SDS011;26591;43.264;26.940;2023-07-29T13:47:48;2.10;;;1.40;;
40871;SDS011;26591;43.264;26.940;2023-07-29T13:50:15;2.28;;;1.50;;
40871;SDS011;26591;43.264;26.940;2023-07-29T13:52:41;5.93;;;1.50;;
40871;SDS011;26591;43.264;26.940;2023-07-29T13:55:07;3.90;;;1.40;;
40871;SDS011;26591;43.264;26.940;2023-07-29T13:57:32;4.70;;;1.60;;
40871;SDS011;26591;43.264;26.940;2023-07-29T13:59:58;3.85;;;1.40;;
40871;SDS011;26591;43.264;26.940;2023-07-29T14:02:24;3.13;;;1.65;;
40871;SDS011;26591;43.264;26.940;2023-07-29T14:04:51;5.88;;;1.50;;
40871;SDS011;26591;43.264;26.940;2023-07-29T14:07:17;1.52;;;1.17;;
40871;SDS011;26591;43.264;26.940;2023-07-29T14:09:42;10.02;;;2.20;;
40871;SDS011;26591;43.264;26.940;2023-07-29T14:12:08;2.05;;;1.70;;
40871;SDS011;26591;43.264;26.940;2023-07-29T14:14:37;2.63;;;1.48;;
40871;SDS011;26591;43.264;26.940;2023-07-29T14:17:03;2.10;;;1.35;;
40871;SDS011;26591;43.264;26.940;2023-07-29T14:19:29;1.70;;;1.17;;
40871;SDS011;26591;43.264;26.940;2023-07-29T14:21:55;2.00;;;1.38;;
40871;SDS011;26591;43.264;26.940;2023-07-29T14:24:20;6.22;;;1.52;;
40871;SDS011;26591;43.264;26.940;2023-07-29T14:26:48;2.83;;;1.30;;
40871;SDS011;26591;43.264;26.940;2023-07-29T14:29:13;2.30;;;1.48;;
40871;SDS011;26591;43.264;26.940;2023-07-29T14:31:39;2.67;;;1.35;;
40871;SDS011;26591;43.264;26.940;2023-07-29T14:34:06;2.78;;;1.63;;
40871;SDS011;26591;43.264;26.940;2023-07-29T14:36:31;2.00;;;1.30;;
40871;SDS011;26591;43.264;26.940;2023-07-29T14:38:57;4.32;;;1.80;;
40871;SDS011;26591;43.264;26.940;2023-07-29T14:41:22;1.83;;;1.40;;